Time;durP1;ratioP1;P1;durP2;ratioP2;P2;SDS_P1;SDS_P2;PMS_P1;PMS_P2;Temp;Humidity;BMP_temperature;BMP_pressure;BME280_temperature;BME280_humidity;BME280_pressure;Samples;Min_cycle;Max_cycle;Signal;HPM_P1;HPM_P2
2023/02/25 00:01:43;;;;;;;;;25.00;21.00;;;;;;;;5079849;27;51015;-53
2023/02/25 00:04:28;;;;;;;;;24.25;18.25;;;;;;;;5079851;27;51095;-50
2023/02/25 00:07:12;;;;;;;;;31.75;23.25;;;;;;;;5080018;27;51445;-51
2023/02/25 00:09:57;;;;;;;;;26.50;18.75;;;;;;;;5078021;27;51138;-51
2023/02/25 00:12:41;;;;;;;;;27.00;21.00;;;;;;;;5079698;27;51553;-53
2023/02/25 00:15:26;;;;;;;;;24.00;21.25;;;;;;;;5079725;27;51175;-52
2023/02/25 00:18:10;;;;;;;;;25.50;17.00;;;;;;;;5079738;27;51074;-50
2023/02/25 00:20:55;;;;;;;;;32.50;23.25;;;;;;;;5082965;27;51051;-49
2023/02/25 00:23:40;;;;;;;;;26.25;20.00;;;;;;;;5084064;27;51587;-55
2023/02/25 00:26:24;;;;;;;;;23.75;18.75;;;;;;;;5083773;27;51071;-53
2023/02/25 00:29:08;;;;;;;;;27.50;19.75;;;;;;;;5083599;27;51028;-56
2023/02/25 00:31:53;;;;;;;;;27.25;18.50;;;;;;;;5083740;27;51166;-54
2023/02/25 00:34:37;;;;;;;;;24.50;18.75;;;;;;;;5083789;27;51099;-51
2023/02/25 00:37:22;;;;;;;;;23.00;18.75;;;;;;;;5083393;27;51088;-50
2023/02/25 00:40:13;;;;;;;;;22.25;17.50;;;;;;;;5083101;27;51087;-49
2023/02/25 00:42:57;;;;;;;;;18.00;12.50;;;;;;;;5083445;27;51484;-52
2023/02/25 00:45:42;;;;;;;;;20.25;16.25;;;;;;;;5083438;27;51061;-52
2023/02/25 00:48:26;;;;;;;;;24.50;18.50;;;;;;;;5083435;27;51173;-52
2023/02/25 00:51:12;;;;;;;;;21.00;17.25;;;;;;;;5083052;27;51154;-53
2023/02/25 00:53:57;;;;;;;;;23.00;18.25;;;;;;;;5083299;27;51017;-51
2023/02/25 00:56:41;;;;;;;;;21.75;16.75;;;;;;;;5082987;27;51163;-55
2023/02/25 00:59:25;;;;;;;;;12.75;8.75;;;;;;;;5083339;27;51504;-51
2023/02/25 01:02:10;;;;;;;;;19.00;15.00;;;;;;;;5082813;27;51099;-50
2023/02/25 01:04:54;;;;;;;;;17.00;12.25;;;;;;;;5082924;27;51093;-51
2023/02/25 01:07:39;;;;;;;;;19.75;14.75;;;;;;;;5082950;27;51085;-51
2023/02/25 01:10:23;;;;;;;;;14.50;13.00;;;;;;;;5082797;27;51213;-54
2023/02/25 01:13:07;;;;;;;;;15.25;11.50;;;;;;;;5083233;27;51040;-49
2023/02/25 01:15:52;;;;;;;;;17.25;14.75;;;;;;;;5082584;27;51366;-51
2023/02/25 01:18:36;;;;;;;;;21.25;12.25;;;;;;;;5082937;27;51079;-52
2023/02/25 01:21:26;;;;;;;;;17.75;11.50;;;;;;;;5082564;27;51083;-54
2023/02/25 01:24:14;;;;;;;;;15.75;13.50;;;;;;;;5082930;27;50981;-51
2023/02/25 01:26:59;;;;;;;;;14.75;11.25;;;;;;;;5082461;27;51333;-53
2023/02/25 01:29:44;;;;;;;;;12.00;10.50;;;;;;;;5082655;27;51384;-51
2023/02/25 01:32:28;;;;;;;;;19.50;12.50;;;;;;;;5082355;27;51040;-53
2023/02/25 01:35:12;;;;;;;;;14.75;11.25;;;;;;;;5082417;27;51181;-49
2023/02/25 01:37:56;;;;;;;;;18.75;9.25;;;;;;;;5082585;27;51193;-48
2023/02/25 01:40:41;;;;;;;;;15.25;11.75;;;;;;;;5082233;27;51342;-52
2023/02/25 01:43:27;;;;;;;;;13.50;11.50;;;;;;;;5082160;27;51236;-51
2023/02/25 01:46:11;;;;;;;;;18.50;12.75;;;;;;;;5082254;27;51139;-50
2023/02/25 01:48:55;;;;;;;;;25.25;13.50;;;;;;;;5082345;27;51134;-50
2023/02/25 01:51:41;;;;;;;;;15.00;12.50;;;;;;;;5081899;27;51040;-50
2023/02/25 01:54:26;;;;;;;;;19.25;12.75;;;;;;;;5082002;27;51216;-49
2023/02/25 01:57:12;;;;;;;;;16.50;14.25;;;;;;;;5081961;27;51440;-50
2023/02/25 01:59:56;;;;;;;;;19.00;16.00;;;;;;;;5081797;27;51155;-52
2023/02/25 02:02:41;;;;;;;;;16.75;13.50;;;;;;;;5082066;27;51433;-51
2023/02/25 02:05:32;;;;;;;;;16.75;14.50;;;;;;;;5078505;27;51201;-55
2023/02/25 02:08:16;;;;;;;;;24.25;15.00;;;;;;;;5081798;27;51210;-54
2023/02/25 02:11:03;;;;;;;;;16.00;13.50;;;;;;;;5081847;27;51112;-50
2023/02/25 02:13:50;;;;;;;;;19.75;15.25;;;;;;;;5081851;27;51087;-50
2023/02/25 02:16:39;;;;;;;;;20.75;17.25;;;;;;;;5081505;27;51516;-48
2023/02/25 02:19:42;;;;;;;;;21.75;17.25;;;;;;;;5081818;27;51036;-53
2023/02/25 02:22:38;;;;;;;;;18.75;14.25;;;;;;;;5081427;27;51366;-52
2023/02/25 02:25:41;;;;;;;;;22.50;18.00;;;;;;;;5081244;27;51133;-53
2023/02/25 02:28:40;;;;;;;;;23.75;18.00;;;;;;;;5081848;27;51063;-54
2023/02/25 02:31:33;;;;;;;;;24.25;14.75;;;;;;;;5081298;27;51071;-53
2023/02/25 02:34:32;;;;;;;;;25.50;15.00;;;;;;;;5081211;27;51123;-51
2023/02/25 02:37:28;;;;;;;;;23.25;19.00;;;;;;;;5081253;27;51193;-52
2023/02/25 02:40:19;;;;;;;;;25.00;17.75;;;;;;;;5081432;27;51103;-53
2023/02/25 02:43:22;;;;;;;;;22.25;17.00;;;;;;;;5080367;27;51507;-53
2023/02/25 02:46:09;;;;;;;;;21.50;18.00;;;;;;;;5081177;27;50982;-52
2023/02/25 02:49:07;;;;;;;;;24.75;18.75;;;;;;;;5081059;27;51364;-46
2023/02/25 02:52:03;;;;;;;;;26.00;22.25;;;;;;;;5080800;27;51123;-49
2023/02/25 02:54:56;;;;;;;;;28.25;20.25;;;;;;;;5080959;27;51116;-53
2023/02/25 02:57:41;;;;;;;;;22.25;17.00;;;;;;;;5079434;27;51391;-54
2023/02/25 03:00:27;;;;;;;;;26.50;18.75;;;;;;;;5080726;27;51176;-52
2023/02/25 03:03:15;;;;;;;;;24.00;18.75;;;;;;;;5080867;27;51189;-51
2023/02/25 03:06:00;;;;;;;;;29.00;23.25;;;;;;;;5080683;27;51489;-54
2023/02/25 03:08:48;;;;;;;;;23.25;20.75;;;;;;;;5080394;27;51503;-53
2023/02/25 03:11:32;;;;;;;;;26.75;21.75;;;;;;;;5080683;27;51127;-51
2023/02/25 03:14:17;;;;;;;;;26.75;21.25;;;;;;;;5080507;27;51471;-50
2023/02/25 03:17:04;;;;;;;;;25.75;22.00;;;;;;;;5080179;27;51136;-46
2023/02/25 03:19:49;;;;;;;;;23.50;18.50;;;;;;;;5080778;27;52247;-52
2023/02/25 03:22:35;;;;;;;;;27.75;20.25;;;;;;;;5080233;27;51500;-53
2023/02/25 03:25:31;;;;;;;;;26.50;21.00;;;;;;;;5099492;27;51408;-49
2023/02/25 03:28:16;;;;;;;;;29.75;17.00;;;;;;;;5100403;27;51319;-52
2023/02/25 03:31:21;;;;;;;;;23.50;18.00;;;;;;;;5081165;27;51107;-53
2023/02/25 03:34:08;;;;;;;;;26.75;20.00;;;;;;;;5080011;27;51328;-52
2023/02/25 03:36:59;;;;;;;;;24.50;19.75;;;;;;;;5079984;27;51166;-52
2023/02/25 03:39:46;;;;;;;;;25.50;19.00;;;;;;;;5080470;27;51436;-49
2023/02/25 03:42:32;;;;;;;;;22.00;17.25;;;;;;;;5080068;27;51032;-51
2023/02/25 03:45:17;;;;;;;;;17.00;13.25;;;;;;;;5080138;27;51139;-52
2023/02/25 03:48:03;;;;;;;;;21.00;17.25;;;;;;;;5079794;27;51146;-50
2023/02/25 03:51:08;;;;;;;;;22.00;16.50;;;;;;;;5080098;27;51478;-54
2023/02/25 03:53:52;;;;;;;;;22.75;19.75;;;;;;;;5078839;27;51269;-49
2023/02/25 03:56:41;;;;;;;;;27.50;16.25;;;;;;;;5080224;27;51161;-49
2023/02/25 03:59:27;;;;;;;;;24.75;16.50;;;;;;;;5079662;27;51626;-54
2023/02/25 04:02:13;;;;;;;;;24.50;19.25;;;;;;;;5079776;27;51062;-47
2023/02/25 04:04:57;;;;;;;;;26.25;20.75;;;;;;;;5080011;27;51431;-53
2023/02/25 04:07:42;;;;;;;;;21.50;14.75;;;;;;;;5079699;27;51199;-53
2023/02/25 04:10:27;;;;;;;;;31.75;21.75;;;;;;;;5079917;27;51008;-51
2023/02/25 04:13:12;;;;;;;;;24.25;21.50;;;;;;;;5059798;27;52325;-52
2023/02/25 04:15:56;;;;;;;;;26.00;19.00;;;;;;;;5079861;27;51557;-54
2023/02/25 04:18:41;;;;;;;;;25.75;17.75;;;;;;;;5079456;27;51066;-53
2023/02/25 04:21:25;;;;;;;;;19.50;16.50;;;;;;;;5096898;27;51115;-49
2023/02/25 04:24:09;;;;;;;;;25.00;18.75;;;;;;;;5099611;27;51353;-52
2023/02/25 04:26:57;;;;;;;;;23.50;18.75;;;;;;;;5100205;27;51224;-51
2023/02/25 04:29:41;;;;;;;;;17.50;15.25;;;;;;;;5100193;27;51411;-53
2023/02/25 04:32:25;;;;;;;;;27.75;18.50;;;;;;;;5099797;27;51041;-49
2023/02/25 04:35:10;;;;;;;;;26.25;20.25;;;;;;;;5100287;27;51101;-54
2023/02/25 04:37:55;;;;;;;;;25.00;18.75;;;;;;;;5099716;27;51404;-50
2023/02/25 04:40:39;;;;;;;;;24.50;18.50;;;;;;;;5099917;27;51597;-49
2023/02/25 04:43:23;;;;;;;;;22.00;16.25;;;;;;;;5099696;27;51064;-52
2023/02/25 04:46:08;;;;;;;;;25.00;20.25;;;;;;;;5100132;27;51011;-52
2023/02/25 04:48:52;;;;;;;;;26.50;20.75;;;;;;;;5099706;27;51017;-54
2023/02/25 04:51:37;;;;;;;;;27.75;19.25;;;;;;;;5099955;27;51144;-47
2023/02/25 04:54:21;;;;;;;;;26.00;16.75;;;;;;;;5099629;27;51553;-53
2023/02/25 04:57:07;;;;;;;;;20.50;17.00;;;;;;;;5099634;27;51038;-52
2023/02/25 04:59:51;;;;;;;;;23.50;19.00;;;;;;;;5100122;27;51148;-55
2023/02/25 05:02:35;;;;;;;;;17.75;14.50;;;;;;;;5099356;27;51190;-52
2023/02/25 05:05:20;;;;;;;;;29.50;18.00;;;;;;;;5100371;27;51148;-54
2023/02/25 05:08:04;;;;;;;;;26.75;20.00;;;;;;;;5103430;27;51184;-50
2023/02/25 05:10:49;;;;;;;;;25.75;19.00;;;;;;;;5103919;27;51031;-51
2023/02/25 05:13:33;;;;;;;;;34.75;27.50;;;;;;;;5103043;27;51470;-53
2023/02/25 05:16:18;;;;;;;;;25.25;22.00;;;;;;;;5088532;27;51087;-48
2023/02/25 05:19:02;;;;;;;;;44.00;31.25;;;;;;;;5082829;27;51450;-51
2023/02/25 05:21:47;;;;;;;;;33.50;25.25;;;;;;;;5082551;27;51253;-54
2023/02/25 05:24:31;;;;;;;;;36.25;31.25;;;;;;;;5082667;27;51264;-52
2023/02/25 05:27:16;;;;;;;;;33.25;26.50;;;;;;;;5082729;27;51579;-51
2023/02/25 05:30:00;;;;;;;;;32.25;22.75;;;;;;;;5082624;27;51359;-51
2023/02/25 05:32:44;;;;;;;;;26.25;23.75;;;;;;;;5082419;27;51178;-51
2023/02/25 05:35:31;;;;;;;;;26.25;20.00;;;;;;;;5082675;27;51185;-55
2023/02/25 05:38:15;;;;;;;;;27.25;20.25;;;;;;;;5082087;27;51155;-53
2023/02/25 05:41:00;;;;;;;;;31.50;23.25;;;;;;;;5082412;27;51213;-52
2023/02/25 05:43:44;;;;;;;;;26.00;20.25;;;;;;;;5082175;27;51321;-53
2023/02/25 05:46:29;;;;;;;;;26.75;18.50;;;;;;;;5081831;27;51069;-50
2023/02/25 05:49:13;;;;;;;;;28.75;22.00;;;;;;;;5082513;27;51158;-50
2023/02/25 05:51:57;;;;;;;;;29.25;19.75;;;;;;;;5082022;27;51427;-53
2023/02/25 05:54:42;;;;;;;;;25.50;20.25;;;;;;;;5063260;27;51224;-53
2023/02/25 05:57:26;;;;;;;;;23.75;21.50;;;;;;;;5081857;27;51108;-50
2023/02/25 06:00:13;;;;;;;;;27.25;20.75;;;;;;;;5082558;27;51142;-50
2023/02/25 06:02:57;;;;;;;;;32.25;20.50;;;;;;;;5081704;27;51056;-55
2023/02/25 06:05:42;;;;;;;;;25.75;20.00;;;;;;;;5081869;27;51123;-53
2023/02/25 06:08:26;;;;;;;;;29.00;20.00;;;;;;;;5081837;27;51108;-50
2023/02/25 06:11:14;;;;;;;;;26.00;19.25;;;;;;;;5081606;27;51070;-51
2023/02/25 06:13:58;;;;;;;;;25.25;21.00;;;;;;;;5081960;27;51130;-53
2023/02/25 06:16:43;;;;;;;;;30.00;24.00;;;;;;;;5080523;27;51137;-48
2023/02/25 06:19:27;;;;;;;;;26.25;20.75;;;;;;;;5081860;27;51524;-52
2023/02/25 06:22:12;;;;;;;;;24.75;21.00;;;;;;;;5081420;27;51075;-50
2023/02/25 06:24:56;;;;;;;;;35.00;21.25;;;;;;;;5081670;27;51044;-50
2023/02/25 06:27:41;;;;;;;;;25.50;20.00;;;;;;;;5081322;27;51031;-53
2023/02/25 06:30:26;;;;;;;;;24.75;21.50;;;;;;;;5081658;27;51421;-54
2023/02/25 06:33:10;;;;;;;;;36.50;25.50;;;;;;;;5081452;27;51178;-54
2023/02/25 06:35:54;;;;;;;;;36.25;25.25;;;;;;;;5081165;27;51242;-50
2023/02/25 06:38:39;;;;;;;;;36.25;27.25;;;;;;;;5081298;27;51027;-53
2023/02/25 06:41:23;;;;;;;;;30.00;24.25;;;;;;;;5081263;27;51153;-53
2023/02/25 06:44:07;;;;;;;;;58.50;43.00;;;;;;;;5081085;27;51147;-50
2023/02/25 06:46:55;;;;;;;;;92.25;74.25;;;;;;;;5080751;27;51055;-58
2023/02/25 06:49:39;;;;;;;;;63.00;44.50;;;;;;;;5081246;27;51091;-49
2023/02/25 06:52:24;;;;;;;;;71.50;51.75;;;;;;;;5080953;27;51072;-54
2023/02/25 06:55:08;;;;;;;;;67.00;48.75;;;;;;;;5080735;27;51062;-51
2023/02/25 06:57:53;;;;;;;;;67.50;48.50;;;;;;;;5080762;27;51624;-53
2023/02/25 07:00:41;;;;;;;;;49.50;37.75;;;;;;;;5080407;27;51095;-51
2023/02/25 07:03:26;;;;;;;;;64.75;45.00;;;;;;;;5081014;27;51120;-52
2023/02/25 07:06:12;;;;;;;;;59.50;43.50;;;;;;;;5080344;27;51156;-52
2023/02/25 07:08:57;;;;;;;;;54.50;39.25;;;;;;;;5080375;27;51110;-53
2023/02/25 07:11:41;;;;;;;;;60.00;43.25;;;;;;;;5080117;27;51089;-52
2023/02/25 07:14:25;;;;;;;;;47.75;35.00;;;;;;;;5080802;27;51180;-52
2023/02/25 07:17:10;;;;;;;;;49.75;37.50;;;;;;;;5078450;27;51574;-51
2023/02/25 07:19:55;;;;;;;;;42.50;34.00;;;;;;;;5080329;27;51490;-53
2023/02/25 07:22:40;;;;;;;;;30.50;26.25;;;;;;;;5074892;27;51141;-54
2023/02/25 07:25:25;;;;;;;;;43.00;27.00;;;;;;;;5080141;27;51059;-55
2023/02/25 07:28:09;;;;;;;;;42.75;35.00;;;;;;;;5080412;27;51184;-52
2023/02/25 07:30:53;;;;;;;;;44.00;32.00;;;;;;;;5079964;27;51120;-56
2023/02/25 07:33:38;;;;;;;;;39.00;29.25;;;;;;;;5080558;27;51140;-54
2023/02/25 07:36:22;;;;;;;;;40.50;29.50;;;;;;;;5079914;27;51090;-54
2023/02/25 07:39:09;;;;;;;;;39.00;29.25;;;;;;;;5080086;27;51198;-55
2023/02/25 07:41:54;;;;;;;;;43.50;33.25;;;;;;;;5077090;27;52191;-52
2023/02/25 07:44:38;;;;;;;;;54.75;41.25;;;;;;;;5080146;27;51079;-54
2023/02/25 07:47:22;;;;;;;;;55.00;45.00;;;;;;;;5079883;27;51554;-54
2023/02/25 07:50:08;;;;;;;;;43.00;37.50;;;;;;;;5079588;27;51101;-54
2023/02/25 07:52:53;;;;;;;;;61.50;45.25;;;;;;;;5079827;27;51136;-54
2023/02/25 07:55:37;;;;;;;;;52.50;39.75;;;;;;;;5077266;27;51077;-52
2023/02/25 07:58:22;;;;;;;;;50.25;39.25;;;;;;;;5074892;27;51719;-53
2023/02/25 08:01:10;;;;;;;;;42.50;34.25;;;;;;;;5077801;27;51425;-56
2023/02/25 08:03:56;;;;;;;;;32.75;26.50;;;;;;;;5079404;27;51190;-53
2023/02/25 08:06:40;;;;;;;;;32.75;26.25;;;;;;;;5079203;27;51026;-52
2023/02/25 08:09:25;;;;;;;;;43.75;30.25;;;;;;;;5077949;28;51165;-54
2023/02/25 08:12:09;;;;;;;;;44.25;31.00;;;;;;;;5079745;28;51696;-51
2023/02/25 08:14:54;;;;;;;;;42.25;31.00;;;;;;;;5079387;28;51160;-56
2023/02/25 08:17:38;;;;;;;;;41.75;32.25;;;;;;;;5079874;28;51133;-53
2023/02/25 08:20:23;;;;;;;;;37.75;30.75;;;;;;;;5077528;28;51090;-53
2023/02/25 08:23:07;;;;;;;;;36.75;30.25;;;;;;;;5079288;28;51158;-54
2023/02/25 08:25:55;;;;;;;;;44.00;33.00;;;;;;;;5079530;28;51006;-52
2023/02/25 08:28:39;;;;;;;;;36.75;30.00;;;;;;;;5079755;28;51188;-50
2023/02/25 08:31:23;;;;;;;;;27.00;23.75;;;;;;;;5079332;28;51339;-54
2023/02/25 08:34:09;;;;;;;;;32.00;27.00;;;;;;;;5079457;28;51135;-53
2023/02/25 08:36:53;;;;;;;;;36.75;29.25;;;;;;;;5079607;28;51450;-51
2023/02/25 08:39:38;;;;;;;;;41.00;29.00;;;;;;;;5079016;27;52005;-55
2023/02/25 08:42:23;;;;;;;;;37.25;28.25;;;;;;;;5083305;27;51280;-53
2023/02/25 08:45:07;;;;;;;;;46.25;31.00;;;;;;;;5083323;27;51048;-54
2023/02/25 08:47:52;;;;;;;;;34.25;29.75;;;;;;;;5083529;27;51110;-50
2023/02/25 08:50:36;;;;;;;;;36.50;27.50;;;;;;;;5083230;27;51023;-55
2023/02/25 08:53:21;;;;;;;;;37.25;29.50;;;;;;;;5083570;27;51029;-53
2023/02/25 08:56:06;;;;;;;;;32.25;27.25;;;;;;;;5061725;28;51523;-52
2023/02/25 08:58:50;;;;;;;;;33.75;28.00;;;;;;;;5083251;27;51132;-55
2023/02/25 09:01:44;;;;;;;;;38.75;30.75;;;;;;;;5083333;27;51025;-52
2023/02/25 09:04:28;;;;;;;;;39.00;29.50;;;;;;;;5082807;27;51498;-52
2023/02/25 09:07:15;;;;;;;;;43.25;31.75;;;;;;;;5082954;27;51169;-51
2023/02/25 09:09:59;;;;;;;;;34.50;28.50;;;;;;;;5083205;27;51152;-51
2023/02/25 09:12:44;;;;;;;;;30.75;26.00;;;;;;;;5081906;27;51191;-54
2023/02/25 09:15:30;;;;;;;;;32.75;25.75;;;;;;;;5082455;27;51191;-52
2023/02/25 09:18:14;;;;;;;;;41.50;27.25;;;;;;;;5082973;27;51333;-52
2023/02/25 09:20:59;;;;;;;;;31.25;24.75;;;;;;;;5082687;27;51477;-53
2023/02/25 09:23:43;;;;;;;;;37.25;26.50;;;;;;;;5088022;27;51093;-51
2023/02/25 09:26:27;;;;;;;;;30.75;26.00;;;;;;;;5103144;27;51469;-51
2023/02/25 09:29:12;;;;;;;;;36.50;28.75;;;;;;;;5102948;27;51168;-54
2023/02/25 09:31:57;;;;;;;;;36.00;24.75;;;;;;;;5103226;27;51157;-52
2023/02/25 09:34:41;;;;;;;;;29.50;24.75;;;;;;;;5080501;27;51084;-50
2023/02/25 09:37:26;;;;;;;;;33.75;26.50;;;;;;;;5082395;27;51090;-56
2023/02/25 09:40:15;;;;;;;;;30.75;22.75;;;;;;;;5082426;27;51126;-53
2023/02/25 09:43:08;;;;;;;;;30.75;21.25;;;;;;;;5082603;27;51143;-55
2023/02/25 09:45:53;;;;;;;;;37.00;28.25;;;;;;;;5082163;27;51546;-52
2023/02/25 09:48:43;;;;;;;;;35.75;26.50;;;;;;;;5081920;27;51339;-48
2023/02/25 09:51:31;;;;;;;;;28.25;19.25;;;;;;;;5082159;27;51418;-53
2023/02/25 09:54:41;;;;;;;;;29.25;21.50;;;;;;;;5082038;27;51047;-51
2023/02/25 09:57:28;;;;;;;;;29.75;22.25;;;;;;;;5082256;27;51044;-54
2023/02/25 10:00:19;;;;;;;;;29.75;20.50;;;;;;;;5081934;27;51107;-53
2023/02/25 10:03:10;;;;;;;;;32.00;26.00;;;;;;;;5087069;27;51132;-52
2023/02/25 10:06:01;;;;;;;;;35.50;28.75;;;;;;;;5101530;27;51276;-53
2023/02/25 10:08:51;;;;;;;;;44.75;30.75;;;;;;;;5099102;27;51016;-53
2023/02/25 10:11:52;;;;;;;;;34.00;28.00;;;;;;;;5084823;27;52060;-55
2023/02/25 10:14:43;;;;;;;;;30.00;25.50;;;;;;;;5081879;27;51208;-52
2023/02/25 10:17:31;;;;;;;;;25.50;23.50;;;;;;;;5081672;27;50986;-54
2023/02/25 10:20:17;;;;;;;;;30.00;22.00;;;;;;;;5084656;27;51134;-54
2023/02/25 10:23:01;;;;;;;;;29.00;26.25;;;;;;;;5081624;27;51119;-53
2023/02/25 10:26:12;;;;;;;;;33.00;28.25;;;;;;;;5100088;27;51061;-52
2023/02/25 10:29:01;;;;;;;;;38.00;26.50;;;;;;;;5075805;27;51499;-54
2023/02/25 10:31:45;;;;;;;;;41.75;29.00;;;;;;;;5101611;27;51095;-53
2023/02/25 10:34:31;;;;;;;;;31.75;28.75;;;;;;;;5077335;27;51039;-55
2023/02/25 10:37:22;;;;;;;;;29.50;24.75;;;;;;;;5089668;27;51145;-54
2023/02/25 10:40:10;;;;;;;;;45.25;31.25;;;;;;;;5088474;27;51698;-55
2023/02/25 10:42:57;;;;;;;;;43.50;29.75;;;;;;;;5101676;27;51007;-52
2023/02/25 10:45:44;;;;;;;;;35.50;26.75;;;;;;;;5078321;27;51088;-52
2023/02/25 10:48:29;;;;;;;;;33.00;29.00;;;;;;;;5085278;27;51330;-55
2023/02/25 10:51:14;;;;;;;;;43.50;28.75;;;;;;;;5093138;27;51065;-56
2023/02/25 10:54:06;;;;;;;;;38.25;28.00;;;;;;;;5098734;27;51108;-54
2023/02/25 10:56:51;;;;;;;;;40.00;28.75;;;;;;;;5077869;27;51164;-51
2023/02/25 10:59:40;;;;;;;;;32.25;26.25;;;;;;;;5077058;27;51169;-54
2023/02/25 11:02:26;;;;;;;;;30.50;26.00;;;;;;;;5080851;27;51138;-52
2023/02/25 11:05:30;;;;;;;;;31.25;25.50;;;;;;;;5080741;27;51075;-55
2023/02/25 11:08:26;;;;;;;;;35.00;25.75;;;;;;;;5080707;27;51123;-52
2023/02/25 11:11:18;;;;;;;;;31.00;26.00;;;;;;;;5080843;27;51079;-53
2023/02/25 11:14:06;;;;;;;;;28.50;21.50;;;;;;;;5080276;27;51323;-52
2023/02/25 11:16:50;;;;;;;;;31.75;25.75;;;;;;;;5080354;27;51008;-50
2023/02/25 11:19:36;;;;;;;;;30.00;24.00;;;;;;;;5080780;27;51082;-51
2023/02/25 11:22:22;;;;;;;;;45.25;26.00;;;;;;;;5080134;27;51133;-51
2023/02/25 11:25:14;;;;;;;;;36.50;28.00;;;;;;;;5080377;27;51027;-50
2023/02/25 11:27:59;;;;;;;;;39.50;28.25;;;;;;;;5080018;27;51091;-53
2023/02/25 11:30:44;;;;;;;;;26.25;21.75;;;;;;;;5080321;27;51030;-51
2023/02/25 11:33:33;;;;;;;;;32.50;24.50;;;;;;;;5080243;27;51181;-54
2023/02/25 11:36:22;;;;;;;;;29.00;20.00;;;;;;;;5080264;27;51126;-54
2023/02/25 11:39:06;;;;;;;;;31.50;23.50;;;;;;;;5079879;27;51367;-50
2023/02/25 11:41:52;;;;;;;;;32.00;21.25;;;;;;;;5076607;27;51173;-55
2023/02/25 11:44:41;;;;;;;;;30.00;21.75;;;;;;;;5080398;27;50984;-52
2023/02/25 11:47:27;;;;;;;;;26.25;20.50;;;;;;;;5080031;27;51284;-56
2023/02/25 11:50:30;;;;;;;;;31.50;22.50;;;;;;;;5080442;27;51166;-55
2023/02/25 11:53:24;;;;;;;;;41.75;26.25;;;;;;;;5079653;27;51133;-49
2023/02/25 11:56:23;;;;;;;;;30.00;23.50;;;;;;;;5077789;27;52733;-54
2023/02/25 11:59:28;;;;;;;;;31.25;23.75;;;;;;;;5078307;27;51535;-53
2023/02/25 12:02:22;;;;;;;;;35.75;20.25;;;;;;;;5079961;27;51159;-55
2023/02/25 12:05:34;;;;;;;;;25.00;19.25;;;;;;;;5079570;27;51362;-52
2023/02/25 12:08:39;;;;;;;;;21.00;15.50;;;;;;;;5079527;27;51177;-53
2023/02/25 12:11:43;;;;;;;;;28.50;20.25;;;;;;;;5048637;27;51197;-52
2023/02/25 12:14:46;;;;;;;;;28.75;22.25;;;;;;;;5076872;28;52335;-54
2023/02/25 12:18:05;;;;;;;;;25.50;19.00;;;;;;;;5082431;27;51058;-53
2023/02/25 12:21:10;;;;;;;;;23.25;21.00;;;;;;;;5001122;28;51092;-53
2023/02/25 12:24:03;;;;;;;;;25.75;19.25;;;;;;;;5085958;27;51191;-50
2023/02/25 12:27:06;;;;;;;;;24.25;16.25;;;;;;;;5083923;27;51530;-51
2023/02/25 12:29:59;;;;;;;;;28.75;20.50;;;;;;;;5083968;27;51071;-52
2023/02/25 12:32:56;;;;;;;;;23.75;21.50;;;;;;;;5083601;27;51088;-50
2023/02/25 12:36:03;;;;;;;;;24.75;19.00;;;;;;;;5083670;27;51194;-51
2023/02/25 12:38:50;;;;;;;;;26.75;22.00;;;;;;;;5047589;27;51501;-52
2023/02/25 12:41:44;;;;;;;;;25.50;19.50;;;;;;;;5083349;27;51173;-53
2023/02/25 12:44:47;;;;;;;;;30.50;23.00;;;;;;;;5104115;27;51130;-50
2023/02/25 12:47:40;;;;;;;;;28.50;21.00;;;;;;;;5103765;27;51389;-50
2023/02/25 12:50:34;;;;;;;;;25.50;15.75;;;;;;;;5103789;27;51081;-53
2023/02/25 12:53:30;;;;;;;;;27.75;22.75;;;;;;;;5103717;27;51211;-53
2023/02/25 12:56:24;;;;;;;;;28.25;22.50;;;;;;;;5103880;27;51030;-54
2023/02/25 12:59:27;;;;;;;;;26.25;20.75;;;;;;;;5103328;27;51160;-54
2023/02/25 13:02:15;;;;;;;;;29.75;23.50;;;;;;;;5103401;27;51166;-55
2023/02/25 13:05:15;;;;;;;;;23.00;17.75;;;;;;;;5103730;27;50973;-55
2023/02/25 13:08:02;;;;;;;;;23.25;19.50;;;;;;;;5093606;27;51260;-54
2023/02/25 13:10:46;;;;;;;;;27.75;19.50;;;;;;;;5103826;27;51066;-59
2023/02/25 13:13:37;;;;;;;;;33.50;21.75;;;;;;;;5103149;27;52272;-52
2023/02/25 13:16:40;;;;;;;;;22.50;16.00;;;;;;;;5103473;27;51525;-54
2023/02/25 13:19:38;;;;;;;;;20.00;12.25;;;;;;;;5101452;27;51111;-54
2023/02/25 13:22:34;;;;;;;;;22.00;16.25;;;;;;;;5082776;27;51058;-53
2023/02/25 13:25:37;;;;;;;;;22.75;16.00;;;;;;;;5076675;27;51423;-52
2023/02/25 13:28:34;;;;;;;;;23.75;15.75;;;;;;;;5080152;27;51159;-49
2023/02/25 13:31:22;;;;;;;;;21.50;15.00;;;;;;;;5082577;27;51193;-52
2023/02/25 13:34:09;;;;;;;;;21.75;17.75;;;;;;;;5082346;27;51221;-52
2023/02/25 13:36:59;;;;;;;;;27.25;21.25;;;;;;;;5078807;27;51169;-53
2023/02/25 13:39:53;;;;;;;;;20.50;15.50;;;;;;;;5079629;27;51087;-53
2023/02/25 13:42:52;;;;;;;;;20.50;17.00;;;;;;;;5080065;27;51153;-50
2023/02/25 13:45:56;;;;;;;;;16.75;12.25;;;;;;;;5080810;27;51189;-52
2023/02/25 13:48:47;;;;;;;;;22.00;17.25;;;;;;;;5082463;27;51026;-53
2023/02/25 13:51:46;;;;;;;;;21.50;16.50;;;;;;;;5081871;27;51136;-52
2023/02/25 13:54:49;;;;;;;;;19.25;15.75;;;;;;;;5081869;27;51190;-53
2023/02/25 13:57:39;;;;;;;;;17.50;13.75;;;;;;;;5081908;27;51519;-53
2023/02/25 14:00:46;;;;;;;;;14.00;12.75;;;;;;;;5082043;27;51079;-53
2023/02/25 14:03:37;;;;;;;;;13.25;9.00;;;;;;;;5082049;27;51087;-51
2023/02/25 14:06:27;;;;;;;;;18.00;13.75;;;;;;;;5081553;27;51064;-53
2023/02/25 14:09:18;;;;;;;;;19.75;14.25;;;;;;;;5069983;27;51062;-53
2023/02/25 14:12:21;;;;;;;;;16.50;13.50;;;;;;;;5081519;27;51112;-55
2023/02/25 14:15:31;;;;;;;;;20.00;14.00;;;;;;;;5081721;27;51179;-53
2023/02/25 14:18:44;;;;;;;;;15.75;12.25;;;;;;;;5081342;27;51507;-53
2023/02/25 14:21:40;;;;;;;;;15.50;13.75;;;;;;;;5081479;27;51165;-55
2023/02/25 14:24:28;;;;;;;;;19.25;11.75;;;;;;;;5092758;27;51046;-57
2023/02/25 14:27:25;;;;;;;;;17.00;12.50;;;;;;;;5085109;27;51026;-50
2023/02/25 14:30:12;;;;;;;;;14.75;10.75;;;;;;;;5063595;27;51073;-55
2023/02/25 14:33:15;;;;;;;;;12.25;10.75;;;;;;;;5099846;27;51393;-51
2023/02/25 14:36:02;;;;;;;;;14.25;10.75;;;;;;;;5094330;27;51168;-55
2023/02/25 14:38:58;;;;;;;;;14.75;9.00;;;;;;;;5072686;27;51370;-54
2023/02/25 14:41:42;;;;;;;;;14.50;11.00;;;;;;;;5073908;27;51055;-53
2023/02/25 14:44:36;;;;;;;;;11.00;9.75;;;;;;;;5080379;27;51535;-54
2023/02/25 14:47:29;;;;;;;;;24.75;18.00;;;;;;;;5081169;27;51120;-53
2023/02/25 14:50:19;;;;;;;;;18.75;12.25;;;;;;;;5072621;27;51270;-52
2023/02/25 14:53:29;;;;;;;;;16.50;10.00;;;;;;;;5070732;27;51250;-52
2023/02/25 14:56:36;;;;;;;;;15.00;11.50;;;;;;;;5065616;27;51091;-55
2023/02/25 14:59:26;;;;;;;;;16.75;12.75;;;;;;;;5077477;27;51099;-54
2023/02/25 15:02:20;;;;;;;;;14.00;13.25;;;;;;;;5078165;27;51145;-55
2023/02/25 15:05:23;;;;;;;;;18.25;14.00;;;;;;;;5101302;27;51158;-51
2023/02/25 15:08:07;;;;;;;;;14.25;12.25;;;;;;;;5080762;27;51308;-55
2023/02/25 15:10:55;;;;;;;;;11.00;10.00;;;;;;;;5070839;27;51192;-52
2023/02/25 15:13:57;;;;;;;;;17.50;9.00;;;;;;;;5079012;27;51273;-51
2023/02/25 15:17:00;;;;;;;;;13.00;12.00;;;;;;;;5080230;27;51401;-53
2023/02/25 15:20:03;;;;;;;;;16.00;10.75;;;;;;;;5076476;27;51094;-55
2023/02/25 15:23:07;;;;;;;;;20.50;13.00;;;;;;;;5090846;27;51681;-51
2023/02/25 15:25:56;;;;;;;;;15.25;12.75;;;;;;;;5072827;27;52043;-54
2023/02/25 15:28:42;;;;;;;;;15.00;11.25;;;;;;;;5076101;27;51547;-52
2023/02/25 15:31:30;;;;;;;;;16.25;10.00;;;;;;;;5080123;27;51073;-54
2023/02/25 15:34:20;;;;;;;;;15.00;10.75;;;;;;;;5078840;27;51022;-52
2023/02/25 15:37:30;;;;;;;;;15.75;13.00;;;;;;;;5089080;27;51162;-54
2023/02/25 15:40:14;;;;;;;;;15.50;12.50;;;;;;;;5087779;27;51304;-53
2023/02/25 15:43:15;;;;;;;;;18.50;11.00;;;;;;;;5081651;27;51207;-55
2023/02/25 15:46:05;;;;;;;;;16.25;12.50;;;;;;;;5078118;27;51240;-53
2023/02/25 15:49:11;;;;;;;;;13.75;11.00;;;;;;;;5100644;27;51213;-54
2023/02/25 15:51:57;;;;;;;;;15.00;11.50;;;;;;;;5100323;27;51477;-53
2023/02/25 15:54:42;;;;;;;;;8.75;7.75;;;;;;;;5088666;27;51559;-53
2023/02/25 15:57:26;;;;;;;;;17.00;8.75;;;;;;;;5082335;27;51154;-51
2023/02/25 16:00:29;;;;;;;;;19.50;12.50;;;;;;;;5077737;27;51613;-54
2023/02/25 16:03:34;;;;;;;;;14.75;11.50;;;;;;;;5097384;27;51102;-51
2023/02/25 16:06:27;;;;;;;;;19.00;14.25;;;;;;;;5069892;27;51135;-53
2023/02/25 16:09:15;;;;;;;;;20.50;14.75;;;;;;;;5080963;27;51457;-55
2023/02/25 16:12:04;;;;;;;;;20.00;17.00;;;;;;;;5076444;27;51435;-55
2023/02/25 16:14:49;;;;;;;;;17.00;12.25;;;;;;;;5073029;27;51060;-51
2023/02/25 16:17:34;;;;;;;;;13.00;10.00;;;;;;;;5079586;27;51425;-51
2023/02/25 16:20:45;;;;;;;;;17.25;10.00;;;;;;;;5079097;27;51574;-52
2023/02/25 16:23:30;;;;;;;;;13.00;8.25;;;;;;;;5075471;27;51170;-50
2023/02/25 16:26:21;;;;;;;;;11.25;9.00;;;;;;;;5076527;28;51130;-54